createdAt,value
2019-03-31T00:02:32.687Z,3.42
2019-03-31T00:05:08.413Z,1.90
2019-03-31T00:07:43.803Z,3.70
2019-03-31T00:10:21.999Z,1.30
2019-03-31T00:13:00.220Z,3.27
2019-03-31T00:15:38.515Z,1.55
2019-03-31T00:18:16.943Z,2.30
2019-03-31T00:20:52.533Z,1.67
2019-03-31T00:23:27.809Z,2.62
2019-03-31T00:26:05.969Z,3.80
2019-03-31T00:28:43.664Z,1.20
2019-03-31T00:31:22.676Z,2.92
2019-03-31T00:34:01.043Z,1.02
2019-03-31T00:36:39.189Z,1.30
2019-03-31T00:39:17.404Z,2.45
2019-03-31T00:41:55.549Z,1.25
2019-03-31T00:44:34.199Z,2.08
2019-03-31T00:47:12.471Z,1.72
2019-03-31T00:49:50.713Z,1.37
2019-03-31T00:52:29.095Z,2.62
2019-03-31T00:55:07.337Z,1.77
2019-03-31T00:57:42.683Z,2.05
2019-03-31T01:00:40.212Z,2.65
2019-03-31T01:03:18.659Z,3.12
2019-03-31T01:05:57.056Z,1.90
2019-03-31T01:08:37.380Z,3.02
2019-03-31T01:11:26.381Z,2.45
2019-03-31T01:14:04.697Z,1.85
2019-03-31T01:16:42.894Z,1.22
2019-03-31T01:19:21.821Z,2.75
2019-03-31T01:22:00.340Z,4.55
2019-03-31T01:24:38.615Z,4.33
2019-03-31T01:27:17.409Z,3.67
2019-03-31T01:29:55.767Z,3.47
2019-03-31T01:32:35.688Z,0.72
2019-03-31T01:35:14.571Z,2.50
2019-03-31T01:37:52.938Z,1.60
2019-03-31T01:40:31.108Z,2.42
2019-03-31T01:43:09.752Z,2.47
2019-03-31T01:45:48.392Z,1.75
2019-03-31T01:48:28.219Z,3.12
2019-03-31T01:51:07.095Z,1.05
2019-03-31T01:53:42.530Z,0.88
2019-03-31T01:56:20.789Z,1.25
2019-03-31T01:59:01.888Z,1.75
2019-03-31T02:01:40.253Z,1.72
2019-03-31T02:04:15.764Z,1.05
2019-03-31T02:06:53.936Z,1.00
2019-03-31T02:09:32.198Z,2.30
2019-03-31T02:12:10.776Z,2.75
2019-03-31T02:14:49.051Z,1.07
2019-03-31T02:17:24.424Z,1.10
2019-03-31T02:20:04.016Z,1.37
2019-03-31T02:22:42.315Z,1.85
2019-03-31T02:25:20.558Z,2.10
2019-03-31T02:27:58.694Z,1.67
2019-03-31T02:30:36.887Z,1.32
2019-03-31T02:33:15.094Z,1.32
2019-03-31T02:35:53.318Z,2.55
2019-03-31T02:38:31.530Z,0.50
2019-03-31T02:41:11.499Z,2.92
2019-03-31T02:43:49.757Z,1.10
2019-03-31T02:46:28.297Z,2.35
2019-03-31T02:49:06.355Z,0.65
2019-03-31T02:51:45.699Z,1.00
2019-03-31T02:54:24.063Z,0.78
2019-03-31T02:57:02.644Z,1.42
2019-03-31T02:59:41.429Z,2.67
2019-03-31T03:02:21.041Z,2.72
2019-03-31T03:05:17.648Z,1.32
2019-03-31T03:07:42.876Z,1.20
2019-03-31T03:10:21.413Z,0.90
2019-03-31T03:13:01.340Z,1.95
2019-03-31T03:15:41.496Z,0.72
2019-03-31T03:18:17.086Z,0.72
2019-03-31T03:20:52.684Z,1.20
2019-03-31T03:23:30.759Z,1.05
2019-03-31T03:26:11.588Z,1.80
2019-03-31T03:28:50.119Z,2.35
2019-03-31T03:31:28.325Z,2.22
2019-03-31T03:34:06.633Z,3.15
2019-03-31T03:36:44.975Z,2.33
2019-03-31T03:39:23.294Z,0.53
2019-03-31T03:42:01.532Z,0.85
2019-03-31T03:44:39.788Z,2.62
2019-03-31T03:47:18.192Z,1.42
2019-03-31T03:49:56.400Z,0.93
2019-03-31T03:52:34.631Z,5.20
2019-03-31T03:55:13.120Z,2.75
2019-03-31T03:57:51.355Z,0.80
2019-03-31T04:00:29.752Z,1.55
2019-03-31T04:03:07.976Z,3.05
2019-03-31T04:05:46.346Z,1.02
2019-03-31T04:08:24.920Z,0.60
2019-03-31T04:11:25.563Z,0.62
2019-03-31T04:14:05.712Z,0.75
2019-03-31T04:16:48.225Z,0.88
2019-03-31T04:19:26.430Z,3.12
2019-03-31T04:22:07.355Z,0.80
2019-03-31T04:24:45.516Z,2.08
2019-03-31T04:27:23.703Z,3.20
2019-03-31T04:30:02.023Z,1.17
2019-03-31T04:32:41.168Z,2.58
2019-03-31T04:35:19.426Z,1.82
2019-03-31T04:37:57.612Z,0.72
2019-03-31T04:40:35.821Z,0.70
2019-03-31T04:43:14.080Z,3.25
2019-03-31T04:45:52.525Z,1.30
2019-03-31T04:48:30.709Z,1.77
2019-03-31T04:51:09.995Z,0.37
2019-03-31T04:53:48.607Z,1.12
2019-03-31T04:56:26.851Z,2.25
2019-03-31T04:59:02.543Z,0.40
2019-03-31T05:01:45.520Z,0.98
2019-03-31T05:04:24.195Z,1.80
2019-03-31T05:07:05.755Z,2.05
2019-03-31T05:09:44.149Z,1.32
2019-03-31T05:12:22.369Z,0.80
2019-03-31T05:15:02.531Z,0.65
2019-03-31T05:17:40.891Z,0.55
2019-03-31T05:20:19.053Z,1.30
2019-03-31T05:22:54.335Z,2.10
2019-03-31T05:25:32.316Z,2.75
2019-03-31T05:28:11.053Z,1.77
2019-03-31T05:30:49.274Z,2.60
2019-03-31T05:33:24.635Z,2.15
2019-03-31T05:35:59.959Z,2.77
2019-03-31T05:38:37.998Z,1.27
2019-03-31T05:41:16.215Z,1.75
2019-03-31T05:44:05.103Z,2.62
2019-03-31T05:46:34.428Z,2.67
2019-03-31T05:49:12.663Z,1.67
2019-03-31T05:51:50.853Z,1.52
2019-03-31T05:54:29.030Z,4.87
2019-03-31T05:57:07.315Z,14.40
2019-03-31T05:59:45.483Z,28.77
2019-03-31T06:02:23.921Z,10.30
2019-03-31T06:05:02.106Z,3.35
2019-03-31T06:07:40.358Z,1.32
2019-03-31T06:10:18.699Z,1.07
2019-03-31T06:12:57.276Z,2.12
2019-03-31T06:15:35.530Z,3.10
2019-03-31T06:18:13.890Z,13.80
2019-03-31T06:20:49.340Z,10.38
2019-03-31T06:23:24.735Z,4.53
2019-03-31T06:26:02.915Z,2.67
2019-03-31T06:28:41.235Z,3.85
2019-03-31T06:31:19.513Z,6.42
2019-03-31T06:33:55.079Z,7.92
2019-03-31T06:36:33.297Z,16.10
2019-03-31T06:39:12.798Z,4.20
2019-03-31T06:41:50.994Z,1.75
2019-03-31T06:44:29.227Z,0.80
2019-03-31T06:47:07.445Z,4.17
2019-03-31T06:49:45.715Z,9.90
2019-03-31T06:52:23.948Z,12.18
2019-03-31T06:55:02.112Z,4.42
2019-03-31T06:57:40.314Z,2.30
2019-03-31T07:00:19.224Z,4.40
2019-03-31T07:02:57.543Z,5.40
2019-03-31T07:05:32.996Z,8.78
2019-03-31T07:08:11.097Z,14.38
2019-03-31T07:10:49.387Z,1.40
2019-03-31T07:13:25.847Z,2.62
2019-03-31T07:16:04.007Z,2.08
2019-03-31T07:18:42.204Z,9.38
2019-03-31T07:21:20.320Z,18.17
2019-03-31T07:23:55.796Z,31.45
2019-03-31T07:26:34.485Z,8.60
2019-03-31T07:29:13.031Z,1.77
2019-03-31T07:31:48.491Z,2.65
2019-03-31T07:34:23.843Z,4.62
2019-03-31T07:37:01.921Z,5.80
2019-03-31T07:39:40.075Z,10.68
2019-03-31T07:42:18.261Z,12.65
2019-03-31T07:44:53.573Z,4.50
2019-03-31T07:47:31.924Z,1.70
2019-03-31T07:50:11.219Z,3.00
2019-03-31T07:52:49.575Z,3.52
2019-03-31T07:55:27.912Z,6.17
2019-03-31T07:58:03.491Z,12.53
2019-03-31T08:00:42.687Z,5.00
2019-03-31T08:03:25.920Z,3.05
2019-03-31T08:06:04.204Z,7.70
2019-03-31T08:08:42.380Z,13.93
2019-03-31T08:11:21.563Z,16.25
2019-03-31T08:14:09.244Z,6.92
2019-03-31T08:16:47.763Z,2.75
2019-03-31T08:19:23.169Z,1.87
2019-03-31T08:22:01.247Z,3.77
2019-03-31T08:24:46.656Z,11.43
2019-03-31T08:27:23.141Z,24.12
2019-03-31T08:30:01.451Z,4.80
2019-03-31T08:32:41.561Z,3.72
2019-03-31T08:35:20.997Z,6.35
2019-03-31T08:38:00.657Z,9.80
2019-03-31T08:40:39.076Z,20.52
2019-03-31T08:43:17.486Z,4.33
2019-03-31T08:45:55.830Z,2.42
2019-03-31T08:48:34.085Z,3.10
2019-03-31T08:51:12.451Z,3.42
2019-03-31T08:53:50.755Z,2.90
2019-03-31T08:56:29.104Z,3.05
2019-03-31T08:59:07.374Z,3.15
2019-03-31T09:01:46.628Z,2.70
2019-03-31T09:04:24.761Z,3.52
2019-03-31T09:07:03.145Z,2.62
2019-03-31T09:09:43.747Z,3.83
2019-03-31T09:12:22.269Z,4.00
2019-03-31T09:14:58.259Z,2.12
2019-03-31T09:17:36.260Z,3.55
2019-03-31T09:20:16.143Z,3.55
2019-03-31T09:22:54.186Z,1.90
2019-03-31T09:25:33.635Z,2.65
2019-03-31T09:28:11.779Z,4.22
2019-03-31T09:30:50.004Z,5.15
2019-03-31T09:33:28.223Z,2.42
2019-03-31T09:36:15.975Z,4.22
2019-03-31T09:38:45.715Z,2.30
2019-03-31T09:41:24.197Z,4.40
2019-03-31T09:44:02.565Z,3.25
2019-03-31T09:46:40.768Z,2.37
2019-03-31T09:49:19.342Z,3.92
2019-03-31T09:51:57.827Z,4.05
2019-03-31T09:54:38.253Z,2.58
2019-03-31T09:57:21.818Z,3.50
2019-03-31T10:00:00.432Z,4.50
2019-03-31T10:02:38.863Z,2.17
2019-03-31T10:05:18.419Z,4.50
2019-03-31T10:07:56.899Z,3.05
2019-03-31T10:10:41.285Z,4.22
2019-03-31T10:13:19.495Z,3.05
2019-03-31T10:15:58.309Z,3.27
2019-03-31T10:18:37.634Z,2.65
2019-03-31T10:21:13.394Z,2.92
2019-03-31T10:23:52.682Z,3.70
2019-03-31T10:26:32.266Z,4.08
2019-03-31T10:29:10.320Z,3.95
2019-03-31T10:31:48.819Z,2.98
2019-03-31T10:34:27.121Z,3.27
2019-03-31T10:37:05.727Z,3.75
2019-03-31T10:39:51.144Z,4.62
2019-03-31T10:42:29.693Z,2.12
2019-03-31T10:45:08.121Z,3.85
2019-03-31T10:47:43.715Z,3.08
2019-03-31T10:50:25.192Z,3.47
2019-03-31T10:53:00.986Z,3.35
2019-03-31T10:55:41.883Z,3.65
2019-03-31T10:58:20.136Z,3.55
2019-03-31T11:00:58.511Z,3.80
2019-03-31T11:03:38.899Z,3.22
2019-03-31T11:06:17.200Z,3.83
2019-03-31T11:08:55.679Z,3.40
2019-03-31T11:11:34.199Z,3.05
2019-03-31T11:14:12.630Z,3.65
2019-03-31T11:16:50.906Z,3.52
2019-03-31T11:19:29.288Z,3.08
2019-03-31T11:22:21.247Z,3.85
2019-03-31T11:24:59.546Z,2.77
2019-03-31T11:27:37.830Z,4.53
2019-03-31T11:30:16.952Z,2.37
2019-03-31T11:32:55.699Z,3.35
2019-03-31T11:35:33.892Z,2.22
2019-03-31T11:38:12.468Z,2.33
2019-03-31T11:40:50.922Z,2.00
2019-03-31T11:43:29.223Z,2.10
2019-03-31T11:46:07.379Z,3.33
2019-03-31T11:48:45.555Z,5.15
2019-03-31T11:51:23.854Z,3.95
2019-03-31T11:54:02.603Z,3.50
2019-03-31T11:56:41.348Z,5.55
2019-03-31T11:59:19.262Z,2.27
2019-03-31T12:01:55.293Z,3.55
2019-03-31T12:04:33.506Z,3.72
2019-03-31T12:07:11.968Z,4.45
2019-03-31T12:09:50.101Z,2.50
2019-03-31T12:12:28.156Z,2.80
2019-03-31T12:15:03.526Z,2.33
2019-03-31T12:17:41.933Z,2.65
2019-03-31T12:20:20.420Z,4.03
2019-03-31T12:22:58.736Z,5.50
2019-03-31T12:25:38.573Z,3.58
2019-03-31T12:28:16.804Z,4.00
2019-03-31T12:30:54.966Z,2.45
2019-03-31T12:33:33.107Z,3.12
2019-03-31T12:36:12.104Z,4.00
2019-03-31T12:38:53.588Z,3.62
2019-03-31T12:41:26.707Z,3.05
2019-03-31T12:44:04.753Z,2.95
2019-03-31T12:46:42.878Z,3.10
2019-03-31T12:49:20.989Z,2.40
2019-03-31T12:51:59.110Z,3.42
2019-03-31T12:54:37.242Z,3.05
2019-03-31T12:57:15.382Z,5.50
2019-03-31T12:59:53.737Z,3.87
2019-03-31T13:02:31.867Z,3.35
2019-03-31T13:05:10.139Z,3.65
2019-03-31T13:07:56.250Z,3.40
2019-03-31T13:10:27.494Z,2.55
2019-03-31T13:13:02.860Z,3.02
2019-03-31T13:15:41.038Z,2.87
2019-03-31T13:18:19.852Z,4.05
2019-03-31T13:20:58.655Z,2.37
2019-03-31T13:23:37.155Z,2.85
2019-03-31T13:26:15.271Z,4.05
2019-03-31T13:28:53.421Z,3.33
2019-03-31T13:31:31.655Z,4.15
2019-03-31T13:34:07.022Z,4.83
2019-03-31T13:36:46.828Z,3.08
2019-03-31T13:39:25.038Z,2.83
2019-03-31T13:42:03.325Z,3.62
2019-03-31T13:44:41.419Z,3.80
2019-03-31T13:47:21.462Z,2.98
2019-03-31T13:49:59.601Z,2.52
2019-03-31T13:52:37.826Z,3.00
2019-03-31T13:55:16.254Z,2.40
2019-03-31T13:57:54.890Z,2.50
2019-03-31T14:00:45.150Z,2.17
2019-03-31T14:03:23.463Z,2.80
2019-03-31T14:06:01.642Z,2.22
2019-03-31T14:08:39.876Z,2.25
2019-03-31T14:11:21.400Z,5.22
2019-03-31T14:13:57.234Z,2.42
2019-03-31T14:16:35.448Z,2.35
2019-03-31T14:19:13.663Z,3.60
2019-03-31T14:21:52.203Z,2.60
2019-03-31T14:24:30.461Z,2.12
2019-03-31T14:27:08.655Z,2.98
2019-03-31T14:29:46.870Z,2.20
2019-03-31T14:32:25.026Z,2.87
2019-03-31T14:35:03.294Z,3.12
2019-03-31T14:37:41.454Z,1.85
2019-03-31T14:40:16.967Z,2.55
2019-03-31T14:42:55.156Z,2.70
2019-03-31T14:45:43.445Z,3.10
2019-03-31T14:48:21.581Z,2.20
2019-03-31T14:51:01.049Z,4.33
2019-03-31T14:53:40.343Z,2.45
2019-03-31T14:56:18.652Z,1.70
2019-03-31T14:58:56.837Z,2.65
2019-03-31T15:01:35.004Z,0.82
2019-03-31T15:04:13.119Z,1.40
2019-03-31T15:06:51.325Z,1.35
2019-03-31T15:09:29.443Z,2.47
2019-03-31T15:12:04.802Z,1.92
2019-03-31T15:14:43.003Z,2.00
2019-03-31T15:17:21.138Z,1.87
2019-03-31T15:19:59.386Z,3.62
2019-03-31T15:22:34.913Z,2.05
2019-03-31T15:25:13.136Z,1.50
2019-03-31T15:27:51.172Z,1.82
2019-03-31T15:30:29.416Z,1.82
2019-03-31T15:33:07.790Z,2.55
2019-03-31T15:35:45.980Z,3.70
2019-03-31T15:38:24.256Z,1.17
2019-03-31T15:41:20.609Z,2.40
2019-03-31T15:43:47.408Z,2.60
2019-03-31T15:46:25.588Z,1.90
2019-03-31T15:49:03.782Z,1.35
2019-03-31T15:51:41.927Z,3.15
2019-03-31T15:54:20.199Z,3.95
2019-03-31T15:56:58.348Z,1.98
2019-03-31T15:59:36.470Z,5.22
2019-03-31T16:02:14.650Z,3.05
2019-03-31T16:04:52.778Z,1.32
2019-03-31T16:07:31.007Z,2.50
2019-03-31T16:10:08.782Z,1.98
2019-03-31T16:12:45.539Z,1.17
2019-03-31T16:15:23.214Z,1.90
2019-03-31T16:18:02.014Z,1.87
2019-03-31T16:20:39.591Z,1.00
2019-03-31T16:23:19.830Z,1.72
2019-03-31T16:26:00.147Z,2.00
2019-03-31T16:28:37.787Z,2.05
2019-03-31T16:31:17.469Z,1.10
2019-03-31T16:33:55.165Z,1.15
2019-03-31T16:36:30.379Z,1.37
2019-03-31T16:39:09.604Z,2.72
2019-03-31T16:41:47.206Z,2.30
2019-03-31T16:44:24.666Z,2.67
2019-03-31T16:47:02.536Z,1.35
2019-03-31T16:49:40.201Z,3.15
2019-03-31T16:52:17.849Z,2.10
2019-03-31T16:54:55.444Z,2.85
2019-03-31T16:57:33.190Z,1.67
2019-03-31T17:00:11.174Z,2.62
2019-03-31T17:02:47.997Z,1.30
2019-03-31T17:05:25.546Z,1.50
2019-03-31T17:08:03.404Z,1.22
2019-03-31T17:10:41.695Z,2.05
2019-03-31T17:13:19.466Z,2.35
2019-03-31T17:15:57.061Z,2.62
2019-03-31T17:18:34.844Z,0.53
2019-03-31T17:21:14.765Z,1.77
2019-03-31T17:23:49.939Z,2.10
2019-03-31T17:26:27.472Z,2.47
2019-03-31T17:29:05.570Z,2.42
2019-03-31T17:31:43.144Z,1.65
2019-03-31T17:34:21.058Z,0.88
2019-03-31T17:36:58.787Z,2.30
2019-03-31T17:39:36.398Z,1.55
2019-03-31T17:42:13.911Z,3.00
2019-03-31T17:44:51.592Z,3.12
2019-03-31T17:47:29.299Z,2.67
2019-03-31T17:50:07.094Z,1.07
2019-03-31T17:52:44.667Z,1.70
2019-03-31T17:55:22.248Z,2.35
2019-03-31T17:57:57.415Z,0.88
2019-03-31T18:03:55.513Z,1.22
2019-03-31T18:09:56.922Z,2.35
2019-03-31T18:12:34.778Z,1.67
2019-03-31T18:15:12.511Z,3.15
2019-03-31T18:17:47.571Z,1.17
2019-03-31T18:20:25.163Z,1.40
2019-03-31T18:23:02.827Z,2.00
2019-03-31T18:25:40.431Z,1.90
2019-03-31T18:28:15.599Z,1.65
2019-03-31T18:30:53.242Z,1.55
2019-03-31T18:33:30.851Z,2.20
2019-03-31T18:36:08.560Z,4.60
2019-03-31T18:38:46.148Z,4.33
2019-03-31T18:41:23.798Z,2.12
2019-03-31T18:44:02.127Z,2.25
2019-03-31T18:46:39.799Z,6.00
2019-03-31T18:49:17.467Z,3.62
2019-03-31T18:51:55.206Z,2.72
2019-03-31T18:54:41.866Z,3.80
2019-03-31T18:57:36.993Z,4.55
2019-03-31T19:00:29.342Z,3.58
2019-03-31T19:03:27.139Z,3.40
2019-03-31T19:06:20.415Z,2.95
2019-03-31T19:09:15.113Z,4.97
2019-03-31T19:12:04.956Z,3.22
2019-03-31T19:14:57.164Z,5.75
2019-03-31T19:17:55.425Z,3.40
2019-03-31T19:20:53.243Z,3.40
2019-03-31T19:24:05.865Z,1.92
2019-03-31T19:26:57.976Z,3.42
2019-03-31T19:29:43.739Z,3.15
2019-03-31T19:32:28.285Z,3.37
2019-03-31T19:35:19.432Z,4.25
2019-03-31T19:38:23.243Z,4.12
2019-03-31T19:41:18.965Z,3.50
2019-03-31T19:44:11.497Z,4.65
2019-03-31T19:47:09.278Z,5.87
2019-03-31T19:50:05.113Z,2.55
2019-03-31T19:53:06.255Z,4.65
2019-03-31T19:56:07.456Z,4.80
2019-03-31T19:58:53.302Z,6.05
2019-03-31T20:01:51.431Z,2.92
2019-03-31T20:04:47.196Z,4.12
2019-03-31T20:08:00.610Z,3.70
2019-03-31T20:10:42.337Z,3.25
2019-03-31T20:13:35.188Z,5.75
2019-03-31T20:16:28.452Z,3.83
2019-03-31T20:19:26.218Z,4.75
2019-03-31T20:22:33.072Z,6.72
2019-03-31T20:25:16.448Z,3.52
2019-03-31T20:28:20.686Z,4.40
2019-03-31T20:31:21.006Z,5.28
2019-03-31T20:34:03.040Z,4.85
2019-03-31T20:37:13.502Z,3.27
2019-03-31T20:40:03.535Z,6.12
2019-03-31T20:43:07.616Z,5.90
2019-03-31T20:45:42.796Z,4.22
2019-03-31T20:48:17.761Z,5.90
2019-03-31T20:50:52.806Z,7.15
2019-03-31T20:53:27.859Z,6.47
2019-03-31T20:56:05.683Z,8.53
2019-03-31T20:58:40.716Z,5.67
2019-03-31T21:01:15.927Z,6.30
2019-03-31T21:03:50.863Z,9.08
2019-03-31T21:06:25.931Z,4.58
2019-03-31T21:09:01.046Z,8.68
2019-03-31T21:11:38.561Z,7.42
2019-03-31T21:14:16.054Z,6.12
2019-03-31T21:16:53.739Z,6.17
2019-03-31T21:19:31.402Z,4.00
2019-03-31T21:22:07.887Z,6.25
2019-03-31T21:24:45.629Z,7.22
2019-03-31T21:27:20.806Z,9.18
2019-03-31T21:29:58.334Z,5.37
2019-03-31T21:32:36.110Z,6.12
2019-03-31T21:35:11.451Z,4.12
2019-03-31T21:37:49.133Z,7.55
2019-03-31T21:40:26.787Z,5.72
2019-03-31T21:43:04.483Z,5.58
2019-03-31T21:45:42.112Z,8.40
2019-03-31T21:48:17.291Z,12.43
2019-03-31T21:50:55.020Z,11.00
2019-03-31T21:53:32.745Z,11.15
2019-03-31T21:56:10.803Z,7.25
2019-03-31T21:58:46.042Z,7.50
2019-03-31T22:01:23.988Z,9.88
2019-03-31T22:03:59.130Z,8.08
2019-03-31T22:06:36.725Z,7.55
2019-03-31T22:09:15.126Z,7.40
2019-03-31T22:11:50.205Z,8.38
2019-03-31T22:14:27.805Z,11.30
2019-03-31T22:17:05.407Z,9.30
2019-03-31T22:19:43.068Z,10.58
2019-03-31T22:22:20.688Z,8.63
2019-03-31T22:24:58.359Z,8.75
2019-03-31T22:27:33.468Z,9.23
2019-03-31T22:30:11.068Z,8.45
2019-03-31T22:32:46.067Z,8.53
2019-03-31T22:35:23.688Z,6.70
2019-03-31T22:38:02.561Z,10.45
2019-03-31T22:40:40.123Z,9.35
2019-03-31T22:43:17.740Z,14.00
2019-03-31T22:45:55.345Z,13.43
2019-03-31T22:48:33.027Z,11.48
2019-03-31T22:51:10.781Z,9.18
2019-03-31T22:53:48.402Z,10.63
2019-03-31T22:56:27.814Z,7.47
2019-03-31T22:59:05.472Z,8.43
2019-03-31T23:01:43.214Z,9.05
2019-03-31T23:04:18.138Z,13.65
2019-03-31T23:06:55.833Z,11.75
2019-03-31T23:09:34.232Z,8.20
2019-03-31T23:12:09.928Z,6.65
2019-03-31T23:14:45.244Z,8.83
2019-03-31T23:17:22.708Z,9.43
2019-03-31T23:20:00.444Z,10.63
2019-03-31T23:22:38.132Z,10.90
2019-03-31T23:25:13.377Z,10.32
2019-03-31T23:27:50.839Z,18.27
2019-03-31T23:30:28.495Z,10.60
2019-03-31T23:33:06.186Z,33.15
2019-03-31T23:35:43.798Z,11.33
2019-03-31T23:38:21.419Z,11.75
2019-03-31T23:40:59.136Z,10.60
2019-03-31T23:43:36.869Z,7.60
2019-03-31T23:46:14.623Z,11.28
2019-03-31T23:48:52.218Z,14.05
2019-03-31T23:51:29.848Z,8.98
2019-03-31T23:54:07.512Z,20.70
2019-03-31T23:56:45.070Z,15.48
2019-03-31T23:59:22.643Z,24.98
